sensor_id;sensor_type;location;lat;lon;timestamp;temperature;humidity
76537;DHT22;65381;51.254;15.592;2023-01-15T00:02:14;8.90;68.90
76537;DHT22;65381;51.254;15.592;2023-01-15T00:04:44;8.90;68.90
76537;DHT22;65381;51.254;15.592;2023-01-15T00:07:12;8.90;68.90
76537;DHT22;65381;51.254;15.592;2023-01-15T00:09:40;8.90;68.90
76537;DHT22;65381;51.254;15.592;2023-01-15T00:12:07;8.90;69.00
76537;DHT22;65381;51.254;15.592;2023-01-15T00:14:36;8.90;69.00
76537;DHT22;65381;51.254;15.592;2023-01-15T00:17:03;8.90;69.00
76537;DHT22;65381;51.254;15.592;2023-01-15T00:19:31;8.90;69.10
76537;DHT22;65381;51.254;15.592;2023-01-15T00:21:59;8.90;69.10
76537;DHT22;65381;51.254;15.592;2023-01-15T00:24:27;8.90;69.10
76537;DHT22;65381;51.254;15.592;2023-01-15T00:27:14;8.90;69.10
76537;DHT22;65381;51.254;15.592;2023-01-15T00:30:01;8.90;69.20
76537;DHT22;65381;51.254;15.592;2023-01-15T00:32:29;8.90;69.30
76537;DHT22;65381;51.254;15.592;2023-01-15T00:34:58;8.90;69.30
76537;DHT22;65381;51.254;15.592;2023-01-15T00:37:27;8.90;69.30
76537;DHT22;65381;51.254;15.592;2023-01-15T00:39:55;8.80;69.40
76537;DHT22;65381;51.254;15.592;2023-01-15T00:42:22;8.80;69.50
76537;DHT22;65381;51.254;15.592;2023-01-15T00:44:51;8.80;69.60
76537;DHT22;65381;51.254;15.592;2023-01-15T00:47:18;8.80;69.60
76537;DHT22;65381;51.254;15.592;2023-01-15T00:49:48;8.80;69.80
76537;DHT22;65381;51.254;15.592;2023-01-15T00:52:16;8.80;69.70
76537;DHT22;65381;51.254;15.592;2023-01-15T00:54:45;8.90;69.70
76537;DHT22;65381;51.254;15.592;2023-01-15T00:57:14;8.90;69.70
76537;DHT22;65381;51.254;15.592;2023-01-15T00:59:43;8.90;69.70
76537;DHT22;65381;51.254;15.592;2023-01-15T01:02:11;9.00;69.70
76537;DHT22;65381;51.254;15.592;2023-01-15T01:04:41;9.00;69.70
76537;DHT22;65381;51.254;15.592;2023-01-15T01:07:08;9.00;69.80
76537;DHT22;65381;51.254;15.592;2023-01-15T01:09:36;9.00;69.80
76537;DHT22;65381;51.254;15.592;2023-01-15T01:12:05;9.00;69.80
76537;DHT22;65381;51.254;15.592;2023-01-15T01:14:36;9.10;69.90
76537;DHT22;65381;51.254;15.592;2023-01-15T01:17:04;9.10;69.90
76537;DHT22;65381;51.254;15.592;2023-01-15T01:19:33;9.10;69.90
76537;DHT22;65381;51.254;15.592;2023-01-15T01:22:02;9.20;69.90
76537;DHT22;65381;51.254;15.592;2023-01-15T01:24:30;9.20;69.90
76537;DHT22;65381;51.254;15.592;2023-01-15T01:26:58;9.20;69.90
76537;DHT22;65381;51.254;15.592;2023-01-15T01:29:27;9.20;70.00
76537;DHT22;65381;51.254;15.592;2023-01-15T01:31:55;9.20;69.90
76537;DHT22;65381;51.254;15.592;2023-01-15T01:34:23;9.30;70.00
76537;DHT22;65381;51.254;15.592;2023-01-15T01:36:51;9.30;70.00
76537;DHT22;65381;51.254;15.592;2023-01-15T01:39:19;9.30;70.10
76537;DHT22;65381;51.254;15.592;2023-01-15T01:41:48;9.30;70.20
76537;DHT22;65381;51.254;15.592;2023-01-15T01:47:00;9.40;70.20
76537;DHT22;65381;51.254;15.592;2023-01-15T01:49:30;9.40;70.30
76537;DHT22;65381;51.254;15.592;2023-01-15T01:52:03;9.40;70.00
76537;DHT22;65381;51.254;15.592;2023-01-15T01:54:35;9.40;70.00
76537;DHT22;65381;51.254;15.592;2023-01-15T01:57:05;9.40;70.10
76537;DHT22;65381;51.254;15.592;2023-01-15T01:59:34;9.40;70.30
76537;DHT22;65381;51.254;15.592;2023-01-15T02:02:04;9.40;70.10
76537;DHT22;65381;51.254;15.592;2023-01-15T02:04:32;9.40;70.20
76537;DHT22;65381;51.254;15.592;2023-01-15T02:07:01;9.40;70.20
76537;DHT22;65381;51.254;15.592;2023-01-15T02:09:30;9.40;70.30
76537;DHT22;65381;51.254;15.592;2023-01-15T02:12:08;9.40;70.50
76537;DHT22;65381;51.254;15.592;2023-01-15T02:14:48;9.40;70.70
76537;DHT22;65381;51.254;15.592;2023-01-15T02:20:30;9.50;70.60
76537;DHT22;65381;51.254;15.592;2023-01-15T02:29:08;9.60;70.80
76537;DHT22;65381;51.254;15.592;2023-01-15T02:31:44;9.60;70.70
76537;DHT22;65381;51.254;15.592;2023-01-15T02:34:32;9.60;71.00
76537;DHT22;65381;51.254;15.592;2023-01-15T02:37:09;9.60;71.00
76537;DHT22;65381;51.254;15.592;2023-01-15T02:39:41;9.60;70.90
76537;DHT22;65381;51.254;15.592;2023-01-15T02:42:11;9.70;71.10
76537;DHT22;65381;51.254;15.592;2023-01-15T02:44:48;9.70;71.10
76537;DHT22;65381;51.254;15.592;2023-01-15T02:47:21;9.70;71.10
76537;DHT22;65381;51.254;15.592;2023-01-15T02:49:53;9.70;71.10
76537;DHT22;65381;51.254;15.592;2023-01-15T02:52:27;9.80;71.10
76537;DHT22;65381;51.254;15.592;2023-01-15T02:55:07;9.80;71.20
76537;DHT22;65381;51.254;15.592;2023-01-15T02:57:44;9.80;71.30
76537;DHT22;65381;51.254;15.592;2023-01-15T03:00:16;9.80;71.30
76537;DHT22;65381;51.254;15.592;2023-01-15T03:03:12;9.80;71.20
76537;DHT22;65381;51.254;15.592;2023-01-15T03:05:46;9.70;71.40
76537;DHT22;65381;51.254;15.592;2023-01-15T03:08:17;9.70;71.50
76537;DHT22;65381;51.254;15.592;2023-01-15T03:16:17;9.80;71.70
76537;DHT22;65381;51.254;15.592;2023-01-15T03:19:06;9.90;71.80
76537;DHT22;65381;51.254;15.592;2023-01-15T03:24:27;10.00;71.70
76537;DHT22;65381;51.254;15.592;2023-01-15T03:26:58;10.00;71.90
76537;DHT22;65381;51.254;15.592;2023-01-15T03:29:31;10.10;71.80
76537;DHT22;65381;51.254;15.592;2023-01-15T03:32:00;10.10;71.80
76537;DHT22;65381;51.254;15.592;2023-01-15T03:34:37;10.20;71.80
76537;DHT22;65381;51.254;15.592;2023-01-15T03:37:07;10.20;71.80
76537;DHT22;65381;51.254;15.592;2023-01-15T03:39:35;10.20;71.90
76537;DHT22;65381;51.254;15.592;2023-01-15T03:53:26;9.80;73.10
76537;DHT22;65381;51.254;15.592;2023-01-15T03:56:09;9.70;73.20
76537;DHT22;65381;51.254;15.592;2023-01-15T03:58:54;9.60;73.20
76537;DHT22;65381;51.254;15.592;2023-01-15T04:01:35;9.60;73.40
76537;DHT22;65381;51.254;15.592;2023-01-15T04:04:05;9.60;73.90
76537;DHT22;65381;51.254;15.592;2023-01-15T04:06:36;9.50;74.10
76537;DHT22;65381;51.254;15.592;2023-01-15T04:09:07;9.60;74.50
76537;DHT22;65381;51.254;15.592;2023-01-15T04:11:37;9.60;74.70
76537;DHT22;65381;51.254;15.592;2023-01-15T04:14:06;9.70;74.30
76537;DHT22;65381;51.254;15.592;2023-01-15T04:16:48;9.70;74.70
76537;DHT22;65381;51.254;15.592;2023-01-15T04:19:16;9.80;74.40
76537;DHT22;65381;51.254;15.592;2023-01-15T04:22:05;9.80;74.60
76537;DHT22;65381;51.254;15.592;2023-01-15T04:24:34;9.90;74.60
76537;DHT22;65381;51.254;15.592;2023-01-15T04:27:02;10.00;74.80
76537;DHT22;65381;51.254;15.592;2023-01-15T04:29:30;10.00;75.00
76537;DHT22;65381;51.254;15.592;2023-01-15T04:31:58;10.00;74.70
76537;DHT22;65381;51.254;15.592;2023-01-15T04:34:27;10.00;74.60
76537;DHT22;65381;51.254;15.592;2023-01-15T04:36:55;10.00;74.50
76537;DHT22;65381;51.254;15.592;2023-01-15T04:39:23;10.00;74.70
76537;DHT22;65381;51.254;15.592;2023-01-15T04:42:12;9.90;74.70
76537;DHT22;65381;51.254;15.592;2023-01-15T04:44:58;9.80;75.00
76537;DHT22;65381;51.254;15.592;2023-01-15T04:47:29;9.80;75.00
76537;DHT22;65381;51.254;15.592;2023-01-15T04:49:57;9.70;75.00
76537;DHT22;65381;51.254;15.592;2023-01-15T04:52:25;9.60;75.50
76537;DHT22;65381;51.254;15.592;2023-01-15T04:54:54;9.60;76.10
76537;DHT22;65381;51.254;15.592;2023-01-15T04:57:22;9.60;76.10
76537;DHT22;65381;51.254;15.592;2023-01-15T04:59:50;9.70;76.40
76537;DHT22;65381;51.254;15.592;2023-01-15T05:02:18;9.70;76.20
76537;DHT22;65381;51.254;15.592;2023-01-15T05:04:46;9.80;76.30
76537;DHT22;65381;51.254;15.592;2023-01-15T05:07:14;9.80;76.20
76537;DHT22;65381;51.254;15.592;2023-01-15T05:09:41;9.80;76.10
76537;DHT22;65381;51.254;15.592;2023-01-15T05:12:10;9.80;76.50
76537;DHT22;65381;51.254;15.592;2023-01-15T05:14:37;9.80;76.50
76537;DHT22;65381;51.254;15.592;2023-01-15T05:17:05;9.70;76.40
76537;DHT22;65381;51.254;15.592;2023-01-15T05:19:33;9.60;76.50
76537;DHT22;65381;51.254;15.592;2023-01-15T05:22:01;9.60;76.60
76537;DHT22;65381;51.254;15.592;2023-01-15T05:24:29;9.50;76.90
76537;DHT22;65381;51.254;15.592;2023-01-15T05:26:57;9.50;77.00
76537;DHT22;65381;51.254;15.592;2023-01-15T05:29:25;9.40;77.20
76537;DHT22;65381;51.254;15.592;2023-01-15T05:31:53;9.40;78.70
76537;DHT22;65381;51.254;15.592;2023-01-15T05:34:21;9.40;78.60
76537;DHT22;65381;51.254;15.592;2023-01-15T05:36:50;9.40;78.80
76537;DHT22;65381;51.254;15.592;2023-01-15T05:39:17;9.20;78.90
76537;DHT22;65381;51.254;15.592;2023-01-15T05:41:45;9.20;79.30
76537;DHT22;65381;51.254;15.592;2023-01-15T05:44:19;9.20;78.90
76537;DHT22;65381;51.254;15.592;2023-01-15T05:46:48;9.20;79.40
76537;DHT22;65381;51.254;15.592;2023-01-15T05:49:19;9.10;79.70
76537;DHT22;65381;51.254;15.592;2023-01-15T05:51:47;9.00;80.20
76537;DHT22;65381;51.254;15.592;2023-01-15T05:54:19;9.00;80.70
76537;DHT22;65381;51.254;15.592;2023-01-15T05:56:48;9.00;80.30
76537;DHT22;65381;51.254;15.592;2023-01-15T05:59:18;9.00;80.20
76537;DHT22;65381;51.254;15.592;2023-01-15T06:01:47;9.00;80.40
76537;DHT22;65381;51.254;15.592;2023-01-15T06:04:15;9.00;80.70
76537;DHT22;65381;51.254;15.592;2023-01-15T06:06:49;9.00;80.70
76537;DHT22;65381;51.254;15.592;2023-01-15T06:09:18;9.00;80.60
76537;DHT22;65381;51.254;15.592;2023-01-15T06:11:46;9.00;81.00
76537;DHT22;65381;51.254;15.592;2023-01-15T06:14:14;9.00;81.00
76537;DHT22;65381;51.254;15.592;2023-01-15T06:16:42;9.00;81.40
76537;DHT22;65381;51.254;15.592;2023-01-15T06:19:11;9.00;81.00
76537;DHT22;65381;51.254;15.592;2023-01-15T06:21:40;9.00;81.10
76537;DHT22;65381;51.254;15.592;2023-01-15T06:24:08;9.00;81.00
76537;DHT22;65381;51.254;15.592;2023-01-15T06:26:36;9.00;80.70
76537;DHT22;65381;51.254;15.592;2023-01-15T06:29:04;9.00;81.10
76537;DHT22;65381;51.254;15.592;2023-01-15T06:31:32;9.00;80.90
76537;DHT22;65381;51.254;15.592;2023-01-15T06:34:01;9.10;80.50
76537;DHT22;65381;51.254;15.592;2023-01-15T06:36:29;9.00;80.50
76537;DHT22;65381;51.254;15.592;2023-01-15T06:38:57;9.00;80.20
76537;DHT22;65381;51.254;15.592;2023-01-15T06:41:26;9.00;80.30
76537;DHT22;65381;51.254;15.592;2023-01-15T06:44:14;9.00;80.40
76537;DHT22;65381;51.254;15.592;2023-01-15T06:47:10;9.00;80.10
76537;DHT22;65381;51.254;15.592;2023-01-15T06:49:53;9.00;80.20
76537;DHT22;65381;51.254;15.592;2023-01-15T06:52:27;9.00;80.40
76537;DHT22;65381;51.254;15.592;2023-01-15T06:54:55;8.90;80.40
76537;DHT22;65381;51.254;15.592;2023-01-15T06:57:23;8.90;80.50
76537;DHT22;65381;51.254;15.592;2023-01-15T06:59:51;8.90;80.30
76537;DHT22;65381;51.254;15.592;2023-01-15T07:02:19;8.90;80.50
76537;DHT22;65381;51.254;15.592;2023-01-15T07:04:48;8.90;80.50
76537;DHT22;65381;51.254;15.592;2023-01-15T07:07:18;8.90;80.30
76537;DHT22;65381;51.254;15.592;2023-01-15T07:09:46;8.90;80.50
76537;DHT22;65381;51.254;15.592;2023-01-15T07:12:15;8.90;80.70
76537;DHT22;65381;51.254;15.592;2023-01-15T07:14:43;8.90;80.50
76537;DHT22;65381;51.254;15.592;2023-01-15T07:17:12;9.00;80.60
76537;DHT22;65381;51.254;15.592;2023-01-15T07:19:40;9.00;80.70
76537;DHT22;65381;51.254;15.592;2023-01-15T07:22:09;9.00;80.60
76537;DHT22;65381;51.254;15.592;2023-01-15T07:24:38;9.00;80.70
76537;DHT22;65381;51.254;15.592;2023-01-15T07:27:06;9.10;80.50
76537;DHT22;65381;51.254;15.592;2023-01-15T07:29:34;9.20;80.50
76537;DHT22;65381;51.254;15.592;2023-01-15T07:32:02;9.20;80.50
76537;DHT22;65381;51.254;15.592;2023-01-15T07:34:30;9.20;80.40
76537;DHT22;65381;51.254;15.592;2023-01-15T07:36:58;9.30;80.50
76537;DHT22;65381;51.254;15.592;2023-01-15T07:39:26;9.40;80.40
76537;DHT22;65381;51.254;15.592;2023-01-15T07:41:55;9.40;80.30
76537;DHT22;65381;51.254;15.592;2023-01-15T07:44:44;9.40;80.20
76537;DHT22;65381;51.254;15.592;2023-01-15T07:47:30;9.40;80.20
76537;DHT22;65381;51.254;15.592;2023-01-15T07:50:21;9.50;80.10
76537;DHT22;65381;51.254;15.592;2023-01-15T07:52:49;9.50;80.10
76537;DHT22;65381;51.254;15.592;2023-01-15T07:55:20;9.60;80.10
76537;DHT22;65381;51.254;15.592;2023-01-15T07:57:49;9.70;80.00
76537;DHT22;65381;51.254;15.592;2023-01-15T08:00:22;9.70;80.00
76537;DHT22;65381;51.254;15.592;2023-01-15T08:02:50;9.80;80.00
76537;DHT22;65381;51.254;15.592;2023-01-15T08:05:19;9.80;79.90
76537;DHT22;65381;51.254;15.592;2023-01-15T08:07:47;9.90;79.80
76537;DHT22;65381;51.254;15.592;2023-01-15T08:10:16;10.00;79.70
76537;DHT22;65381;51.254;15.592;2023-01-15T08:12:49;10.00;79.70
76537;DHT22;65381;51.254;15.592;2023-01-15T08:15:38;10.00;79.60
76537;DHT22;65381;51.254;15.592;2023-01-15T08:18:07;10.00;79.50
76537;DHT22;65381;51.254;15.592;2023-01-15T08:20:35;10.10;79.40
76537;DHT22;65381;51.254;15.592;2023-01-15T08:23:04;10.10;79.50
76537;DHT22;65381;51.254;15.592;2023-01-15T08:25:32;10.20;79.40
76537;DHT22;65381;51.254;15.592;2023-01-15T08:28:01;10.20;79.20
76537;DHT22;65381;51.254;15.592;2023-01-15T08:30:29;10.30;79.10
76537;DHT22;65381;51.254;15.592;2023-01-15T08:32:59;10.40;79.10
76537;DHT22;65381;51.254;15.592;2023-01-15T08:35:27;10.50;79.10
76537;DHT22;65381;51.254;15.592;2023-01-15T08:37:55;10.60;78.90
76537;DHT22;65381;51.254;15.592;2023-01-15T08:40:24;10.70;78.70
76537;DHT22;65381;51.254;15.592;2023-01-15T08:42:54;10.70;78.50
76537;DHT22;65381;51.254;15.592;2023-01-15T08:45:23;10.80;78.50
76537;DHT22;65381;51.254;15.592;2023-01-15T08:47:54;10.80;78.30
76537;DHT22;65381;51.254;15.592;2023-01-15T08:50:24;10.90;78.30
76537;DHT22;65381;51.254;15.592;2023-01-15T08:52:54;10.90;78.00
76537;DHT22;65381;51.254;15.592;2023-01-15T08:55:22;11.00;78.00
76537;DHT22;65381;51.254;15.592;2023-01-15T08:57:52;11.10;77.90
76537;DHT22;65381;51.254;15.592;2023-01-15T09:00:21;11.10;77.60
76537;DHT22;65381;51.254;15.592;2023-01-15T09:02:51;11.10;77.60
76537;DHT22;65381;51.254;15.592;2023-01-15T09:05:19;11.10;77.40
76537;DHT22;65381;51.254;15.592;2023-01-15T09:07:47;11.10;77.50
76537;DHT22;65381;51.254;15.592;2023-01-15T09:10:15;11.10;77.30
76537;DHT22;65381;51.254;15.592;2023-01-15T09:12:44;11.10;77.00
76537;DHT22;65381;51.254;15.592;2023-01-15T09:15:11;11.00;77.10
76537;DHT22;65381;51.254;15.592;2023-01-15T09:17:40;11.00;77.10
76537;DHT22;65381;51.254;15.592;2023-01-15T09:20:10;11.00;77.20
76537;DHT22;65381;51.254;15.592;2023-01-15T09:22:39;11.00;77.00
76537;DHT22;65381;51.254;15.592;2023-01-15T09:25:07;11.00;77.00
76537;DHT22;65381;51.254;15.592;2023-01-15T09:27:35;10.90;77.00
76537;DHT22;65381;51.254;15.592;2023-01-15T09:30:04;10.90;77.00
76537;DHT22;65381;51.254;15.592;2023-01-15T09:32:35;10.90;77.00
76537;DHT22;65381;51.254;15.592;2023-01-15T09:35:03;10.50;76.10
76537;DHT22;65381;51.254;15.592;2023-01-15T09:37:31;9.80;75.90
76537;DHT22;65381;51.254;15.592;2023-01-15T09:39:59;9.20;76.40
76537;DHT22;65381;51.254;15.592;2023-01-15T09:48:30;7.60;77.70
76537;DHT22;65381;51.254;15.592;2023-01-15T09:51:11;7.40;78.00
76537;DHT22;65381;51.254;15.592;2023-01-15T09:56:28;7.00;78.30
76537;DHT22;65381;51.254;15.592;2023-01-15T09:58:58;7.00;78.10
76537;DHT22;65381;51.254;15.592;2023-01-15T10:01:31;6.90;78.20
76537;DHT22;65381;51.254;15.592;2023-01-15T10:04:21;6.70;78.30
76537;DHT22;65381;51.254;15.592;2023-01-15T10:07:15;6.70;78.40
76537;DHT22;65381;51.254;15.592;2023-01-15T10:09:47;6.70;78.40
76537;DHT22;65381;51.254;15.592;2023-01-15T10:12:25;6.80;78.30
76537;DHT22;65381;51.254;15.592;2023-01-15T10:17:45;6.50;78.10
76537;DHT22;65381;51.254;15.592;2023-01-15T10:23:39;6.40;78.40
76537;DHT22;65381;51.254;15.592;2023-01-15T10:28:58;6.40;78.10
76537;DHT22;65381;51.254;15.592;2023-01-15T10:37:09;6.20;78.10
76537;DHT22;65381;51.254;15.592;2023-01-15T10:40:03;6.10;78.30
76537;DHT22;65381;51.254;15.592;2023-01-15T10:45:21;6.00;78.20
76537;DHT22;65381;51.254;15.592;2023-01-15T10:48:30;6.00;78.10
76537;DHT22;65381;51.254;15.592;2023-01-15T10:50:50;6.00;78.30
76537;DHT22;65381;51.254;15.592;2023-01-15T10:53:40;6.00;78.10
76537;DHT22;65381;51.254;15.592;2023-01-15T10:56:17;6.00;78.30
76537;DHT22;65381;51.254;15.592;2023-01-15T10:58:56;6.00;78.30
76537;DHT22;65381;51.254;15.592;2023-01-15T11:01:26;6.00;78.10
76537;DHT22;65381;51.254;15.592;2023-01-15T11:03:54;6.00;78.20
76537;DHT22;65381;51.254;15.592;2023-01-15T11:06:23;5.90;78.10
76537;DHT22;65381;51.254;15.592;2023-01-15T11:08:57;5.90;78.20
76537;DHT22;65381;51.254;15.592;2023-01-15T11:11:43;5.90;78.20
76537;DHT22;65381;51.254;15.592;2023-01-15T11:14:38;5.90;78.30
76537;DHT22;65381;51.254;15.592;2023-01-15T11:17:41;5.90;78.30
76537;DHT22;65381;51.254;15.592;2023-01-15T11:20:34;5.80;78.30
76537;DHT22;65381;51.254;15.592;2023-01-15T11:23:12;5.80;78.30
76537;DHT22;65381;51.254;15.592;2023-01-15T11:25:58;5.70;78.20
76537;DHT22;65381;51.254;15.592;2023-01-15T11:28:36;5.70;78.40
76537;DHT22;65381;51.254;15.592;2023-01-15T11:31:09;5.60;78.50
76537;DHT22;65381;51.254;15.592;2023-01-15T11:33:38;5.60;78.50
76537;DHT22;65381;51.254;15.592;2023-01-15T11:36:21;5.50;78.60
76537;DHT22;65381;51.254;15.592;2023-01-15T11:38:51;5.50;78.60
76537;DHT22;65381;51.254;15.592;2023-01-15T11:41:27;5.50;78.70
76537;DHT22;65381;51.254;15.592;2023-01-15T11:44:15;5.60;78.80
76537;DHT22;65381;51.254;15.592;2023-01-15T11:47:03;5.60;78.60
76537;DHT22;65381;51.254;15.592;2023-01-15T11:49:53;5.60;78.60
76537;DHT22;65381;51.254;15.592;2023-01-15T11:52:46;5.60;78.70
76537;DHT22;65381;51.254;15.592;2023-01-15T11:55:19;5.60;78.70
76537;DHT22;65381;51.254;15.592;2023-01-15T11:57:49;5.60;78.70
76537;DHT22;65381;51.254;15.592;2023-01-15T12:00:27;5.70;78.90
76537;DHT22;65381;51.254;15.592;2023-01-15T12:03:04;5.80;78.70
76537;DHT22;65381;51.254;15.592;2023-01-15T12:05:53;5.80;78.70
76537;DHT22;65381;51.254;15.592;2023-01-15T12:08:39;5.70;78.70
76537;DHT22;65381;51.254;15.592;2023-01-15T12:25:19;5.70;79.00
76537;DHT22;65381;51.254;15.592;2023-01-15T12:28:09;5.70;79.20
76537;DHT22;65381;51.254;15.592;2023-01-15T12:31:15;5.60;79.20
76537;DHT22;65381;51.254;15.592;2023-01-15T12:34:07;5.70;79.30
76537;DHT22;65381;51.254;15.592;2023-01-15T12:37:13;5.60;79.40
76537;DHT22;65381;51.254;15.592;2023-01-15T12:42:51;5.70;79.30
76537;DHT22;65381;51.254;15.592;2023-01-15T12:45:41;5.70;79.30
76537;DHT22;65381;51.254;15.592;2023-01-15T12:48:21;5.60;79.40
76537;DHT22;65381;51.254;15.592;2023-01-15T12:50:56;5.60;79.50
76537;DHT22;65381;51.254;15.592;2023-01-15T12:53:51;5.60;79.50
76537;DHT22;65381;51.254;15.592;2023-01-15T12:56:28;5.60;79.60
76537;DHT22;65381;51.254;15.592;2023-01-15T12:59:13;5.60;79.50
76537;DHT22;65381;51.254;15.592;2023-01-15T13:02:08;5.60;79.60
76537;DHT22;65381;51.254;15.592;2023-01-15T13:04:45;5.60;79.70
76537;DHT22;65381;51.254;15.592;2023-01-15T13:10:30;5.60;79.70
76537;DHT22;65381;51.254;15.592;2023-01-15T13:13:16;5.70;79.60
76537;DHT22;65381;51.254;15.592;2023-01-15T13:21:31;5.70;79.80
76537;DHT22;65381;51.254;15.592;2023-01-15T13:32:23;5.60;80.00
76537;DHT22;65381;51.254;15.592;2023-01-15T13:37:36;5.70;80.10
76537;DHT22;65381;51.254;15.592;2023-01-15T13:40:29;5.70;80.10
76537;DHT22;65381;51.254;15.592;2023-01-15T13:43:03;5.70;80.20
76537;DHT22;65381;51.254;15.592;2023-01-15T13:45:35;5.70;80.20
76537;DHT22;65381;51.254;15.592;2023-01-15T13:48:19;5.70;80.30
76537;DHT22;65381;51.254;15.592;2023-01-15T13:50:55;5.70;80.30
76537;DHT22;65381;51.254;15.592;2023-01-15T13:53:28;5.80;80.30
76537;DHT22;65381;51.254;15.592;2023-01-15T13:56:09;5.80;80.10
76537;DHT22;65381;51.254;15.592;2023-01-15T13:58:52;5.80;80.20
76537;DHT22;65381;51.254;15.592;2023-01-15T14:06:49;5.80;80.20
76537;DHT22;65381;51.254;15.592;2023-01-15T14:12:00;5.70;80.20
76537;DHT22;65381;51.254;15.592;2023-01-15T14:18:05;5.70;80.30
76537;DHT22;65381;51.254;15.592;2023-01-15T14:23:31;5.60;80.30
76537;DHT22;65381;51.254;15.592;2023-01-15T14:26:49;5.60;80.30
76537;DHT22;65381;51.254;15.592;2023-01-15T14:35:21;5.50;80.40
76537;DHT22;65381;51.254;15.592;2023-01-15T14:37:55;5.50;80.50
76537;DHT22;65381;51.254;15.592;2023-01-15T14:40:29;5.50;80.50
76537;DHT22;65381;51.254;15.592;2023-01-15T14:43:01;5.50;80.50
76537;DHT22;65381;51.254;15.592;2023-01-15T14:45:42;5.50;80.40
76537;DHT22;65381;51.254;15.592;2023-01-15T14:51:16;5.50;80.50
76537;DHT22;65381;51.254;15.592;2023-01-15T14:53:56;5.40;80.50
76537;DHT22;65381;51.254;15.592;2023-01-15T14:56:51;5.40;80.60
76537;DHT22;65381;51.254;15.592;2023-01-15T15:00:02;5.40;80.50
76537;DHT22;65381;51.254;15.592;2023-01-15T15:02:42;5.40;80.50
76537;DHT22;65381;51.254;15.592;2023-01-15T15:05:19;5.50;80.30
76537;DHT22;65381;51.254;15.592;2023-01-15T15:07:49;5.40;80.20
76537;DHT22;65381;51.254;15.592;2023-01-15T15:10:31;5.40;80.20
76537;DHT22;65381;51.254;15.592;2023-01-15T15:13:13;5.30;80.20
76537;DHT22;65381;51.254;15.592;2023-01-15T15:18:37;5.40;80.30
76537;DHT22;65381;51.254;15.592;2023-01-15T15:21:46;5.40;80.30
76537;DHT22;65381;51.254;15.592;2023-01-15T15:24:25;5.30;80.40
76537;DHT22;65381;51.254;15.592;2023-01-15T15:26:56;5.30;80.30
76537;DHT22;65381;51.254;15.592;2023-01-15T15:29:24;5.30;80.20
76537;DHT22;65381;51.254;15.592;2023-01-15T15:31:56;5.30;80.20
76537;DHT22;65381;51.254;15.592;2023-01-15T15:34:28;5.30;80.20
76537;DHT22;65381;51.254;15.592;2023-01-15T15:37:14;5.30;80.20
76537;DHT22;65381;51.254;15.592;2023-01-15T15:42:29;5.20;80.20
76537;DHT22;65381;51.254;15.592;2023-01-15T15:51:05;5.10;80.20
76537;DHT22;65381;51.254;15.592;2023-01-15T15:53:36;5.10;80.20
76537;DHT22;65381;51.254;15.592;2023-01-15T15:56:05;5.10;80.20
76537;DHT22;65381;51.254;15.592;2023-01-15T15:58:36;5.10;80.30
76537;DHT22;65381;51.254;15.592;2023-01-15T16:01:10;5.10;80.20
76537;DHT22;65381;51.254;15.592;2023-01-15T16:03:48;5.10;80.20
76537;DHT22;65381;51.254;15.592;2023-01-15T16:06:22;5.10;80.20
76537;DHT22;65381;51.254;15.592;2023-01-15T16:08:56;5.10;80.20
76537;DHT22;65381;51.254;15.592;2023-01-15T16:11:36;5.10;80.20
76537;DHT22;65381;51.254;15.592;2023-01-15T16:14:10;5.10;80.10
76537;DHT22;65381;51.254;15.592;2023-01-15T16:16:44;5.10;80.10
76537;DHT22;65381;51.254;15.592;2023-01-15T16:19:21;5.10;80.10
76537;DHT22;65381;51.254;15.592;2023-01-15T16:21:53;5.10;80.00
76537;DHT22;65381;51.254;15.592;2023-01-15T16:24:26;5.00;80.10
76537;DHT22;65381;51.254;15.592;2023-01-15T16:27:06;5.00;80.10
76537;DHT22;65381;51.254;15.592;2023-01-15T16:29:48;5.00;80.20
76537;DHT22;65381;51.254;15.592;2023-01-15T16:32:28;5.00;80.10
76537;DHT22;65381;51.254;15.592;2023-01-15T16:35:13;5.10;80.00
76537;DHT22;65381;51.254;15.592;2023-01-15T16:37:47;5.00;80.00
76537;DHT22;65381;51.254;15.592;2023-01-15T16:40:31;5.00;80.00
76537;DHT22;65381;51.254;15.592;2023-01-15T16:43:12;5.00;80.00
76537;DHT22;65381;51.254;15.592;2023-01-15T16:48:31;5.00;79.90
76537;DHT22;65381;51.254;15.592;2023-01-15T16:51:30;5.00;80.00
76537;DHT22;65381;51.254;15.592;2023-01-15T16:54:04;5.00;79.90
76537;DHT22;65381;51.254;15.592;2023-01-15T16:59:15;4.90;79.70
76537;DHT22;65381;51.254;15.592;2023-01-15T17:01:47;4.90;79.90
76537;DHT22;65381;51.254;15.592;2023-01-15T17:04:34;5.00;80.10
76537;DHT22;65381;51.254;15.592;2023-01-15T17:07:22;5.00;80.00
76537;DHT22;65381;51.254;15.592;2023-01-15T17:09:55;5.00;80.00
76537;DHT22;65381;51.254;15.592;2023-01-15T17:12:29;5.00;80.00
76537;DHT22;65381;51.254;15.592;2023-01-15T17:17:51;5.00;80.00
76537;DHT22;65381;51.254;15.592;2023-01-15T17:20:23;5.00;79.70
76537;DHT22;65381;51.254;15.592;2023-01-15T17:22:56;5.00;79.70
76537;DHT22;65381;51.254;15.592;2023-01-15T17:25:33;5.00;79.70
76537;DHT22;65381;51.254;15.592;2023-01-15T17:28:04;4.90;79.70
76537;DHT22;65381;51.254;15.592;2023-01-15T17:30:35;4.90;79.70
76537;DHT22;65381;51.254;15.592;2023-01-15T17:33:06;4.80;79.70
76537;DHT22;65381;51.254;15.592;2023-01-15T17:35:44;4.80;79.80
76537;DHT22;65381;51.254;15.592;2023-01-15T17:38:23;4.70;79.90
76537;DHT22;65381;51.254;15.592;2023-01-15T17:40:53;4.90;80.00
76537;DHT22;65381;51.254;15.592;2023-01-15T17:43:26;4.90;80.00
76537;DHT22;65381;51.254;15.592;2023-01-15T17:45:55;5.00;79.70
76537;DHT22;65381;51.254;15.592;2023-01-15T17:48:45;5.00;79.70
76537;DHT22;65381;51.254;15.592;2023-01-15T17:51:15;5.00;79.60
76537;DHT22;65381;51.254;15.592;2023-01-15T17:53:44;5.00;79.60
76537;DHT22;65381;51.254;15.592;2023-01-15T17:56:13;5.00;79.70
76537;DHT22;65381;51.254;15.592;2023-01-15T17:59:01;5.00;79.70
76537;DHT22;65381;51.254;15.592;2023-01-15T18:01:48;5.00;79.50
76537;DHT22;65381;51.254;15.592;2023-01-15T18:04:49;5.10;79.40
76537;DHT22;65381;51.254;15.592;2023-01-15T18:07:39;5.10;79.40
76537;DHT22;65381;51.254;15.592;2023-01-15T18:10:12;5.00;79.20
76537;DHT22;65381;51.254;15.592;2023-01-15T18:12:51;5.00;79.10
76537;DHT22;65381;51.254;15.592;2023-01-15T18:15:26;5.00;79.10
76537;DHT22;65381;51.254;15.592;2023-01-15T18:17:55;5.00;79.10
76537;DHT22;65381;51.254;15.592;2023-01-15T18:20:25;5.00;79.10
76537;DHT22;65381;51.254;15.592;2023-01-15T18:22:54;5.00;79.00
76537;DHT22;65381;51.254;15.592;2023-01-15T18:25:24;5.00;79.00
76537;DHT22;65381;51.254;15.592;2023-01-15T18:27:53;5.00;78.90
76537;DHT22;65381;51.254;15.592;2023-01-15T18:30:23;5.00;78.90
76537;DHT22;65381;51.254;15.592;2023-01-15T18:32:52;4.90;78.80